Time;durP1;ratioP1;P1;durP2;ratioP2;P2;SDS_P1;SDS_P2;PMS_P1;PMS_P2;Temp;Humidity;BMP_temperature;BMP_pressure;BME280_temperature;BME280_humidity;BME280_pressure;Samples;Min_cycle;Max_cycle;Signal;HPM_P1;HPM_P2
2023/01/18 00:00:03;;;;;;;10.55;4.43;;;;;;;-140.72;100.00;53385.25;6272731;22;20330;-71
2023/01/18 00:02:39;;;;;;;7.65;3.10;;;;;;;-140.72;100.00;53379.16;6271139;22;20004;-71
2023/01/18 00:05:07;;;;;;;5.13;3.08;;;;;;;-140.72;100.00;53379.16;6272066;22;20033;-71
2023/01/18 00:07:33;;;;;;;4.20;2.53;;;;;;;-140.72;100.00;53352.78;6270845;22;20003;-71
2023/01/18 00:09:58;;;;;;;4.38;2.67;;;;;;;-140.72;100.00;53332.47;6271778;22;20052;-70
2023/01/18 00:12:24;;;;;;;3.78;2.10;;;;;;;-140.72;100.00;53381.19;6272096;22;20027;-72
2023/01/18 00:14:49;;;;;;;7.10;2.90;;;;;;;-140.72;100.00;53381.19;6272138;22;20406;-71
2023/01/18 00:17:14;;;;;;;2.60;1.77;;;;;;;-140.72;100.00;53369.00;6271227;22;20436;-71
2023/01/18 00:19:40;;;;;;;4.07;2.05;;;;;;;-140.72;100.00;53395.41;6272421;22;20003;-71
2023/01/18 00:22:05;;;;;;;2.22;1.73;;;;;;;-140.72;100.00;53373.06;6271361;22;20020;-70
2023/01/18 00:24:30;;;;;;;2.60;1.73;;;;;;;-140.72;100.00;53375.09;6272493;22;20326;-71
2023/01/18 00:26:56;;;;;;;3.38;1.90;;;;;;;-140.72;100.00;53364.97;6274989;22;20034;-70
2023/01/18 00:29:21;;;;;;;4.07;2.35;;;;;;;-140.72;100.00;53367.00;6273861;22;20004;-71
2023/01/18 00:31:47;;;;;;;3.22;2.13;;;;;;;-140.72;100.00;53373.06;6273879;22;20000;-73
2023/01/18 00:34:12;;;;;;;3.60;2.20;;;;;;;-140.72;100.00;53385.25;6274934;22;20012;-70
2023/01/18 00:36:39;;;;;;;6.25;2.35;;;;;;;-140.72;100.00;53375.09;6273233;22;20003;-71
2023/01/18 00:39:04;;;;;;;4.20;2.92;;;;;;;-140.72;100.00;53356.84;6274688;22;20007;-70
2023/01/18 00:41:30;;;;;;;3.13;2.15;;;;;;;-140.72;100.00;53356.84;6274299;22;20008;-71
2023/01/18 00:43:55;;;;;;;2.83;1.98;;;;;;;-140.72;100.00;53348.72;6273883;22;20078;-71
2023/01/18 00:46:23;;;;;;;2.65;1.75;;;;;;;-140.72;100.00;53316.25;6273999;22;20002;-71
2023/01/18 00:48:50;;;;;;;4.90;2.38;;;;;;;-140.72;100.00;53391.34;6274089;22;20031;-71
2023/01/18 00:51:18;;;;;;;2.67;1.80;;;;;;;-140.72;100.00;53377.13;6273565;22;19999;-73
2023/01/18 00:53:44;;;;;;;6.20;2.73;;;;;;;-140.72;100.00;53401.50;6273442;22;20383;-70
2023/01/18 00:56:13;;;;;;;3.65;2.00;;;;;;;-140.72;100.00;53373.06;6274380;22;20052;-71
2023/01/18 00:58:39;;;;;;;9.33;2.50;;;;;;;-140.72;100.00;53369.00;6273146;22;20010;-71
2023/01/18 01:01:05;;;;;;;4.65;1.83;;;;;;;-140.72;100.00;53401.50;6274019;22;20003;-73
2023/01/18 01:09:00;;;;;;;3.70;1.83;;;;;;;-140.72;100.00;53393.38;6273916;22;20437;-70
2023/01/18 01:11:25;;;;;;;3.38;1.80;;;;;;;-140.72;100.00;53318.28;6272696;22;19996;-71
2023/01/18 01:27:30;;;;;;;3.88;2.33;;;;;;;-140.72;100.00;53362.94;6272767;22;20087;-69
2023/01/18 01:29:55;;;;;;;2.08;1.50;;;;;;;-140.72;100.00;53387.28;6273947;22;20023;-68
2023/01/18 01:32:21;;;;;;;3.78;2.58;;;;;;;-140.72;100.00;53373.06;6273226;22;20509;-70
2023/01/18 01:34:46;;;;;;;3.17;1.88;;;;;;;-140.72;100.00;53413.66;6272862;22;20018;-72
2023/01/18 01:37:11;;;;;;;4.35;2.30;;;;;;;-140.72;100.00;53391.34;6272685;22;19996;-71
2023/01/18 01:39:37;;;;;;;2.83;1.60;;;;;;;-140.72;100.00;53417.72;6272810;22;19999;-70
2023/01/18 01:42:02;;;;;;;3.67;1.92;;;;;;;-140.72;100.00;53395.41;6272790;22;19999;-69
2023/01/18 01:44:32;;;;;;;4.18;2.22;;;;;;;-140.72;100.00;53362.94;6272861;22;20006;-70
2023/01/18 01:47:03;;;;;;;2.38;1.58;;;;;;;-140.72;100.00;53383.22;6273509;22;20130;-69
2023/01/18 01:49:53;;;;;;;1.70;1.42;;;;;;;-140.72;100.00;53385.25;6275115;22;20163;-72
2023/01/18 01:52:23;;;;;;;2.30;1.90;;;;;;;-140.72;100.00;53379.16;6274176;22;20007;-71
2023/01/18 01:55:06;;;;;;;7.60;2.08;;;;;;;-140.72;100.00;53405.56;6272669;22;20019;-70
2023/01/18 01:57:39;;;;;;;2.25;1.55;;;;;;;-140.72;100.00;53379.16;6273579;22;20560;-71
2023/01/18 02:00:14;;;;;;;3.00;2.28;;;;;;;-140.72;100.00;53395.41;6273816;22;20089;-71
2023/01/18 02:02:41;;;;;;;5.03;1.85;;;;;;;-140.72;100.00;53371.03;6272035;22;20000;-72
2023/01/18 02:05:09;;;;;;;1.30;1.17;;;;;;;-140.72;100.00;53409.59;6270906;22;20627;-69
2023/01/18 02:07:35;;;;;;;5.18;2.30;;;;;;;-140.72;100.00;53367.00;6272826;22;20000;-69
2023/01/18 02:10:02;;;;;;;3.58;1.45;;;;;;;-140.72;100.00;53401.50;6273728;22;20011;-70
2023/01/18 02:12:31;;;;;;;4.78;2.47;;;;;;;-140.72;100.00;53415.69;6273801;22;20303;-70
2023/01/18 02:14:58;;;;;;;1.88;1.48;;;;;;;-140.72;100.00;53340.59;6273138;22;20031;-69
2023/01/18 02:17:31;;;;;;;3.72;2.10;;;;;;;-140.72;100.00;53356.84;6273831;22;20004;-69
2023/01/18 02:20:08;;;;;;;9.52;2.05;;;;;;;-140.72;100.00;53369.00;6273210;22;20353;-69
2023/01/18 02:23:07;;;;;;;4.10;1.75;;;;;;;-140.72;100.00;53399.47;6272486;22;20004;-69
2023/01/18 02:25:52;;;;;;;2.20;1.80;;;;;;;-140.72;100.00;53405.56;6272528;22;20000;-69
2023/01/18 02:28:32;;;;;;;4.07;2.15;;;;;;;-140.72;100.00;53352.78;6273226;22;19999;-71
2023/01/18 02:31:16;;;;;;;3.03;1.77;;;;;;;-140.72;100.00;53427.88;6272463;22;20026;-72
2023/01/18 02:34:01;;;;;;;3.03;1.70;;;;;;;-140.72;100.00;53381.19;6272758;22;20444;-69
2023/01/18 02:36:43;;;;;;;2.50;1.35;;;;;;;-140.72;100.00;53358.88;6272060;22;20311;-69
2023/01/18 02:39:37;;;;;;;1.65;1.45;;;;;;;-140.72;100.00;53369.00;6273370;22;20001;-69
2023/01/18 02:48:09;;;;;;;2.95;2.13;;;;;;;-140.72;100.00;53383.22;6272614;22;20011;-72
2023/01/18 02:50:35;;;;;;;2.92;1.85;;;;;;;-140.72;100.00;53381.19;6272169;22;20034;-69
2023/01/18 02:53:03;;;;;;;2.58;1.88;;;;;;;-140.72;100.00;53383.22;6273324;22;20317;-69
2023/01/18 02:55:49;;;;;;;6.97;2.70;;;;;;;-140.72;100.00;53379.16;6272675;22;20433;-71
2023/01/18 02:58:26;;;;;;;4.78;1.85;;;;;;;-140.72;100.00;53423.81;6272639;22;20315;-69
2023/01/18 03:01:01;;;;;;;2.33;1.67;;;;;;;-140.72;100.00;53360.91;6273303;22;20350;-69
2023/01/18 03:03:27;;;;;;;3.38;1.60;;;;;;;-140.72;100.00;53375.09;6273489;22;20057;-71
2023/01/18 03:05:56;;;;;;;4.50;2.03;;;;;;;-140.72;100.00;53352.78;6272661;22;20000;-70
2023/01/18 03:08:34;;;;;;;2.95;2.65;;;;;;;-140.72;100.00;53371.03;6273101;22;19996;-70
2023/01/18 03:11:03;;;;;;;1.67;1.30;;;;;;;-140.72;100.00;53369.00;6272476;22;19996;-71
2023/01/18 03:13:47;;;;;;;5.35;2.30;;;;;;;-140.72;100.00;53375.09;6272892;22;20444;-69
2023/01/18 03:16:25;;;;;;;1.52;1.38;;;;;;;-140.72;100.00;53385.25;6273294;22;20041;-69
2023/01/18 03:18:59;;;;;;;2.50;1.85;;;;;;;-140.72;100.00;53379.16;6272664;22;20071;-69
2023/01/18 03:21:44;;;;;;;2.05;1.50;;;;;;;-140.72;100.00;53393.38;6273676;22;20000;-70
2023/01/18 03:24:10;;;;;;;2.55;1.88;;;;;;;-140.72;100.00;53375.09;6273439;22;20015;-69
2023/01/18 03:26:43;;;;;;;4.07;2.35;;;;;;;-140.72;100.00;53379.16;6272305;22;20061;-70
2023/01/18 03:35:02;;;;;;;2.83;2.13;;;;;;;-140.72;100.00;53369.00;6267546;22;20491;-71
2023/01/18 03:37:38;;;;;;;1.77;1.60;;;;;;;-140.72;100.00;53350.75;6269906;22;20015;-72
2023/01/18 03:40:09;;;;;;;3.72;2.08;;;;;;;-140.72;100.00;53344.66;6271341;22;19996;-70
2023/01/18 03:43:05;;;;;;;2.80;1.63;;;;;;;-140.72;100.00;53364.97;6272500;22;20353;-70
2023/01/18 03:45:41;;;;;;;3.50;1.70;;;;;;;-140.72;100.00;53375.09;6269424;22;20003;-70
2023/01/18 03:48:08;;;;;;;7.88;2.13;;;;;;;-140.72;100.00;53381.19;6272152;22;20410;-70
2023/01/18 03:50:59;;;;;;;5.10;2.33;;;;;;;-140.72;100.00;53340.59;6272384;22;19996;-73
2023/01/18 03:53:28;;;;;;;4.32;2.63;;;;;;;-140.72;100.00;53375.09;6271133;22;19999;-69
2023/01/18 03:56:17;;;;;;;2.92;1.88;;;;;;;-140.72;100.00;53407.56;6272668;22;20046;-71
2023/01/18 03:58:44;;;;;;;3.55;1.80;;;;;;;-140.72;100.00;53417.72;6271362;22;20008;-69
2023/01/18 04:01:09;;;;;;;4.22;2.53;;;;;;;-140.72;100.00;53401.50;6272258;22;20042;-72
2023/01/18 04:03:36;;;;;;;3.90;2.13;;;;;;;-140.72;100.00;53356.84;6271929;22;20003;-71
2023/01/18 04:06:04;;;;;;;5.50;3.30;;;;;;;-140.72;100.00;53371.03;6272369;22;20002;-73
2023/01/18 04:08:29;;;;;;;3.25;2.20;;;;;;;-140.72;100.00;53369.00;6271609;22;20082;-72
2023/01/18 04:10:54;;;;;;;4.03;2.78;;;;;;;-140.72;100.00;53356.84;6272539;22;20059;-70
2023/01/18 04:13:20;;;;;;;3.00;1.73;;;;;;;-140.72;100.00;53385.25;6272472;22;20003;-70
2023/01/18 04:15:45;;;;;;;9.48;2.40;;;;;;;-140.72;100.00;53373.06;6271569;22;20505;-70
2023/01/18 04:18:10;;;;;;;2.45;1.85;;;;;;;-140.72;100.00;53373.06;6272725;22;20023;-70
2023/01/18 04:20:36;;;;;;;4.82;1.75;;;;;;;-140.72;100.00;53393.38;6271976;22;20007;-69
2023/01/18 04:23:01;;;;;;;4.07;2.17;;;;;;;-140.72;100.00;53344.66;6271418;22;20118;-70
2023/01/18 04:25:27;;;;;;;3.08;2.15;;;;;;;-140.72;100.00;53356.84;6271792;22;20406;-73
2023/01/18 04:27:52;;;;;;;3.65;1.88;;;;;;;-140.72;100.00;53389.31;6273338;22;20306;-70
2023/01/18 04:30:18;;;;;;;1.80;1.55;;;;;;;-140.72;100.00;53385.25;6270836;22;20004;-70
2023/01/18 04:32:45;;;;;;;2.38;1.55;;;;;;;-140.72;100.00;53381.19;6272550;22;20030;-70
2023/01/18 04:35:11;;;;;;;3.80;1.73;;;;;;;-140.72;100.00;53369.00;6272051;22;20521;-69
2023/01/18 04:37:37;;;;;;;5.93;2.08;;;;;;;-140.72;100.00;53373.06;6272445;22;20038;-70
2023/01/18 04:40:05;;;;;;;2.28;1.75;;;;;;;-140.72;100.00;53387.28;6272170;22;19995;-72
2023/01/18 04:42:30;;;;;;;3.20;1.95;;;;;;;-140.72;100.00;53358.88;6271236;22;20023;-73
2023/01/18 04:44:59;;;;;;;3.92;1.20;;;;;;;-140.72;100.00;53381.19;6273268;22;20003;-71
2023/01/18 04:47:27;;;;;;;1.85;1.23;;;;;;;-140.72;100.00;53417.72;6272733;22;20053;-71
2023/01/18 04:49:58;;;;;;;8.10;2.20;;;;;;;-140.72;100.00;53364.97;6271744;22;20106;-70
2023/01/18 04:52:25;;;;;;;2.40;1.77;;;;;;;-140.72;100.00;53354.81;6272605;22;20004;-70
2023/01/18 04:54:51;;;;;;;3.00;1.08;;;;;;;-140.72;100.00;53391.34;6272814;22;20004;-71
2023/01/18 04:57:16;;;;;;;3.10;1.80;;;;;;;-140.72;100.00;53377.13;6271654;22;19999;-71
2023/01/18 04:59:44;;;;;;;2.63;1.83;;;;;;;-140.72;100.00;53381.19;6271933;22;20302;-71
2023/01/18 05:02:10;;;;;;;3.50;1.80;;;;;;;-140.72;100.00;53385.25;6272889;22;20008;-72
2023/01/18 05:04:35;;;;;;;3.05;2.33;;;;;;;-140.72;100.00;53377.13;6270369;22;20071;-74
2023/01/18 05:07:01;;;;;;;4.90;1.77;;;;;;;-140.72;100.00;53360.91;6272710;22;20402;-71
2023/01/18 05:09:26;;;;;;;4.63;2.45;;;;;;;-140.72;100.00;53367.00;6271507;22;20000;-71
2023/01/18 05:11:52;;;;;;;5.28;2.35;;;;;;;-140.72;100.00;53385.25;6272654;22;20046;-71
2023/01/18 05:14:20;;;;;;;3.85;2.05;;;;;;;-140.72;100.00;53358.88;6274116;22;20065;-71
2023/01/18 05:16:46;;;;;;;7.50;2.00;;;;;;;-140.72;100.00;53397.44;6272622;22;20007;-71
2023/01/18 05:19:11;;;;;;;2.13;1.38;;;;;;;-140.72;100.00;53364.97;6272794;22;20352;-73
2023/01/18 05:21:36;;;;;;;3.95;1.75;;;;;;;-140.72;100.00;53391.34;6274050;22;20230;-71
2023/01/18 05:24:02;;;;;;;1.38;1.10;;;;;;;-140.72;100.00;53377.13;6273565;22;20170;-74
2023/01/18 05:26:27;;;;;;;2.85;2.08;;;;;;;-140.72;100.00;53377.13;6273062;22;20033;-72
2023/01/18 05:28:56;;;;;;;5.55;2.45;;;;;;;-140.72;100.00;53352.78;6273855;22;20023;-71
2023/01/18 05:31:22;;;;;;;4.32;2.55;;;;;;;-140.72;100.00;53393.38;6274887;22;20023;-71
2023/01/18 05:33:48;;;;;;;2.67;1.80;;;;;;;-140.72;100.00;53391.34;6273121;22;20445;-71
2023/01/18 05:36:13;;;;;;;3.78;2.13;;;;;;;-140.72;100.00;53364.97;6274689;22;20000;-72
2023/01/18 05:38:39;;;;;;;4.35;2.20;;;;;;;-140.72;100.00;53379.16;6272500;22;20075;-71
2023/01/18 05:41:04;;;;;;;5.70;2.28;;;;;;;-140.72;100.00;53375.09;6273480;22;20015;-73
2023/01/18 05:43:30;;;;;;;2.78;2.17;;;;;;;-140.72;100.00;53417.72;6273771;22;20006;-71
2023/01/18 05:45:56;;;;;;;2.72;2.08;;;;;;;-140.72;100.00;53405.56;6272591;22;20002;-70
2023/01/18 05:48:21;;;;;;;2.65;1.33;;;;;;;-140.72;100.00;53377.13;6272788;22;20004;-75
2023/01/18 05:50:47;;;;;;;4.55;1.63;;;;;;;-140.72;100.00;53391.34;6272946;22;20410;-71
2023/01/18 05:53:15;;;;;;;3.35;2.05;;;;;;;-140.72;100.00;53348.72;6272271;22;20030;-72
2023/01/18 05:55:41;;;;;;;3.53;2.00;;;;;;;-140.72;100.00;53387.28;6272822;22;20064;-74
2023/01/18 05:58:07;;;;;;;3.58;1.73;;;;;;;-140.72;100.00;53328.41;6273245;22;20466;-70
2023/01/18 06:00:33;;;;;;;2.45;1.35;;;;;;;-140.72;100.00;53342.63;6272406;22;20010;-70
2023/01/18 06:02:59;;;;;;;2.05;1.75;;;;;;;-140.72;100.00;53364.97;6273414;22;20084;-73
2023/01/18 06:05:24;;;;;;;3.13;2.13;;;;;;;-140.72;100.00;53373.06;6273275;22;20054;-71
2023/01/18 06:07:50;;;;;;;3.88;2.22;;;;;;;-140.72;100.00;53352.78;6272487;22;20000;-71
2023/01/18 06:10:17;;;;;;;4.57;1.70;;;;;;;-140.72;100.00;53373.06;6273516;22;20065;-73
2023/01/18 06:12:43;;;;;;;3.38;1.50;;;;;;;-140.72;100.00;53338.56;6272803;22;20008;-71
2023/01/18 06:15:10;;;;;;;3.13;1.48;;;;;;;-140.72;100.00;53352.78;6272488;22;20069;-72
2023/01/18 06:17:35;;;;;;;8.23;2.10;;;;;;;-140.72;100.00;53373.06;6272840;22;20282;-73
2023/01/18 06:20:02;;;;;;;3.63;1.80;;;;;;;-140.72;100.00;53383.22;6273765;22;20007;-71
2023/01/18 06:22:27;;;;;;;3.97;1.58;;;;;;;-140.72;100.00;53346.69;6271533;22;20014;-70
2023/01/18 06:24:53;;;;;;;2.72;1.77;;;;;;;-140.72;100.00;53356.84;6273324;22;19999;-73
2023/01/18 06:27:18;;;;;;;3.63;1.90;;;;;;;-140.72;100.00;53421.78;6273020;22;20407;-74
2023/01/18 06:29:43;;;;;;;5.00;2.75;;;;;;;-140.72;100.00;53385.25;6272091;22;20004;-73
2023/01/18 06:32:09;;;;;;;2.47;2.28;;;;;;;-140.72;100.00;53369.00;6270904;22;20429;-74
2023/01/18 06:34:35;;;;;;;2.80;1.42;;;;;;;-140.72;100.00;53328.41;6272146;22;20022;-72
2023/01/18 06:37:01;;;;;;;3.80;1.35;;;;;;;-140.72;100.00;53389.31;6271728;22;20008;-73
2023/01/18 06:39:29;;;;;;;3.45;1.92;;;;;;;-140.72;100.00;53336.53;6272990;22;20000;-72
2023/01/18 06:41:55;;;;;;;5.13;2.05;;;;;;;-140.72;100.00;53352.78;6272305;22;20004;-72
2023/01/18 06:44:20;;;;;;;2.80;1.67;;;;;;;-140.72;100.00;53346.69;6272823;22;20437;-73
2023/01/18 06:46:46;;;;;;;2.97;1.90;;;;;;;-140.72;100.00;53389.31;6272619;22;20007;-71
2023/01/18 06:49:12;;;;;;;2.95;1.67;;;;;;;-140.72;100.00;53332.47;6272526;22;20004;-73
2023/01/18 06:51:38;;;;;;;4.85;1.60;;;;;;;-140.72;100.00;53338.56;6272385;22;19999;-72
2023/01/18 06:54:04;;;;;;;7.32;1.50;;;;;;;-140.72;100.00;53367.00;6272841;22;20006;-71
2023/01/18 06:56:29;;;;;;;2.15;1.63;;;;;;;-140.72;100.00;53350.75;6271412;22;20315;-72
2023/01/18 06:58:57;;;;;;;3.95;1.95;;;;;;;-140.72;100.00;53320.31;6272659;22;20030;-72
2023/01/18 07:01:23;;;;;;;5.90;2.53;;;;;;;-140.72;100.00;53328.41;6272104;22;20314;-72
2023/01/18 07:03:49;;;;;;;6.40;2.60;;;;;;;-140.72;100.00;53332.47;6272018;22;20128;-74
2023/01/18 07:06:14;;;;;;;3.22;1.95;;;;;;;-140.72;100.00;53350.75;6272438;22;20008;-73
2023/01/18 07:08:40;;;;;;;7.00;1.75;;;;;;;-140.72;100.00;53362.94;6272790;22;20000;-72
2023/01/18 07:11:09;;;;;;;6.32;2.22;;;;;;;-140.72;100.00;53356.84;6272440;22;20002;-71
2023/01/18 07:13:38;;;;;;;4.25;1.77;;;;;;;-140.72;100.00;53322.34;6271702;22;19999;-73
2023/01/18 07:16:05;;;;;;;4.80;2.25;;;;;;;-140.72;100.00;53346.69;6272491;22;20406;-74
2023/01/18 07:18:31;;;;;;;5.93;2.60;;;;;;;-140.72;100.00;53338.56;6272296;22;19999;-72
2023/01/18 07:21:02;;;;;;;4.22;1.75;;;;;;;-140.72;100.00;53328.41;6274124;22;20079;-71
2023/01/18 07:23:29;;;;;;;5.88;2.25;;;;;;;-140.72;100.00;53354.81;6272074;22;20070;-72
2023/01/18 07:26:15;;;;;;;3.75;1.90;;;;;;;-140.72;100.00;53340.59;6272412;22;20014;-73
2023/01/18 07:28:40;;;;;;;3.13;2.28;;;;;;;-140.72;100.00;53334.50;6272138;22;20085;-70
2023/01/18 07:31:07;;;;;;;3.33;1.75;;;;;;;-140.72;100.00;53318.28;6270968;22;20422;-72
2023/01/18 07:33:32;;;;;;;4.63;2.15;;;;;;;-140.72;100.00;53336.53;6271848;22;20040;-72
2023/01/18 07:35:58;;;;;;;4.15;2.05;;;;;;;-140.72;100.00;53340.59;6272663;22;20034;-72
2023/01/18 07:38:24;;;;;;;5.80;2.08;;;;;;;-140.72;100.00;53348.72;6269631;22;20408;-72
2023/01/18 07:40:49;;;;;;;3.00;2.00;;;;;;;-140.72;100.00;53300.00;6243905;22;20003;-72
2023/01/18 07:43:16;;;;;;;5.78;2.40;;;;;;;-140.72;100.00;53340.59;6271877;22;20078;-72
2023/01/18 07:45:43;;;;;;;5.28;2.08;;;;;;;-140.72;100.00;53344.66;6269911;22;20082;-72
2023/01/18 07:48:09;;;;;;;3.67;2.58;;;;;;;-140.72;100.00;53348.72;6267674;22;20369;-73
2023/01/18 07:50:35;;;;;;;5.43;3.00;;;;;;;-140.72;100.00;53316.25;6270875;22;20425;-70
2023/01/18 07:53:03;;;;;;;3.85;2.70;;;;;;;-140.72;100.00;53338.56;6270359;22;20015;-70
2023/01/18 07:55:31;;;;;;;6.93;3.78;;;;;;;-140.72;100.00;53330.44;6270369;22;20007;-71
2023/01/18 07:57:58;;;;;;;9.65;2.28;;;;;;;-140.72;100.00;53340.59;6264906;22;20538;-70
2023/01/18 08:00:24;;;;;;;5.93;2.50;;;;;;;-140.72;100.00;53385.25;6265165;22;20000;-70
2023/01/18 08:02:50;;;;;;;6.22;2.10;;;;;;;-140.72;100.00;53346.69;6268330;22;20003;-70
2023/01/18 08:05:18;;;;;;;4.78;2.75;;;;;;;-140.72;100.00;53316.25;6269269;22;20132;-70
2023/01/18 08:07:45;;;;;;;4.43;2.85;;;;;;;-140.72;100.00;53344.66;6269636;22;20008;-70
2023/01/18 08:10:10;;;;;;;6.50;2.90;;;;;;;-140.72;100.00;53328.41;6270087;22;19999;-71
2023/01/18 08:12:39;;;;;;;5.18;2.75;;;;;;;-140.72;100.00;53308.13;6268765;22;20421;-70
2023/01/18 08:15:07;;;;;;;4.90;2.75;;;;;;;-140.72;100.00;53336.53;6270046;22;20010;-70
2023/01/18 08:17:36;;;;;;;6.40;3.15;;;;;;;-140.72;100.00;53318.28;6268595;22;20480;-71
2023/01/18 08:20:04;;;;;;;4.10;2.90;;;;;;;-140.72;100.00;53350.75;6269129;22;20008;-70
2023/01/18 08:22:52;;;;;;;5.53;3.15;;;;;;;-140.72;100.00;53312.19;6268883;22;20000;-70
2023/01/18 08:25:18;;;;;;;4.13;2.53;;;;;;;-140.72;100.00;53320.31;6257821;22;20007;-71
2023/01/18 08:27:44;;;;;;;4.13;2.80;;;;;;;-140.72;100.00;53316.25;6269510;22;20512;-70
2023/01/18 08:30:10;;;;;;;4.78;3.20;;;;;;;-140.72;100.00;53275.66;6270151;22;19999;-70
2023/01/18 08:32:37;;;;;;;5.63;2.67;;;;;;;-140.72;100.00;53344.66;6270128;22;20007;-71
2023/01/18 08:35:02;;;;;;;6.22;3.75;;;;;;;-140.72;100.00;53326.41;6269321;22;20345;-71
2023/01/18 08:37:28;;;;;;;3.65;2.72;;;;;;;-140.72;100.00;53297.97;6270013;22;20035;-70
2023/01/18 08:39:59;;;;;;;3.92;3.38;;;;;;;-140.72;100.00;53322.34;6267905;22;20111;-72
2023/01/18 08:42:25;;;;;;;14.90;3.60;;;;;;;-140.72;100.00;53304.06;6268514;22;20364;-70
2023/01/18 08:44:52;;;;;;;4.75;3.50;;;;;;;-140.72;100.00;53312.19;6269035;22;20011;-70
2023/01/18 08:47:18;;;;;;;6.57;3.83;;;;;;;-140.72;100.00;53304.06;6272206;22;19999;-71
2023/01/18 08:49:43;;;;;;;6.80;2.67;;;;;;;-140.72;100.00;53293.91;6270523;22;20030;-72
2023/01/18 08:52:09;;;;;;;7.68;3.92;;;;;;;-140.72;100.00;53306.09;6270558;22;20325;-70
2023/01/18 08:54:43;;;;;;;5.35;3.22;;;;;;;-140.72;100.00;53308.13;6271217;22;20345;-70
2023/01/18 08:57:09;;;;;;;6.07;3.85;;;;;;;-140.72;100.00;53259.41;6270384;22;20418;-70
2023/01/18 08:59:35;;;;;;;5.55;3.00;;;;;;;-140.72;100.00;53346.69;6270786;22;20002;-70
2023/01/18 09:02:00;;;;;;;5.07;2.88;;;;;;;-140.72;100.00;53312.19;6272408;22;20353;-70
2023/01/18 09:04:28;;;;;;;7.68;3.03;;;;;;;-140.72;100.00;53338.56;6271174;22;20038;-70
2023/01/18 09:06:53;;;;;;;4.28;2.42;;;;;;;-140.72;100.00;53312.19;6271970;22;20000;-69
2023/01/18 09:09:19;;;;;;;6.30;2.58;;;;;;;-140.72;100.00;53295.94;6272772;22;20075;-72
2023/01/18 09:11:44;;;;;;;5.35;3.22;;;;;;;-140.72;100.00;53283.78;6274174;22;20093;-69
2023/01/18 09:14:10;;;;;;;3.72;3.10;;;;;;;-140.72;100.00;53265.50;6273143;22;20000;-72
2023/01/18 09:16:35;;;;;;;5.70;3.13;;;;;;;-140.72;100.00;53324.38;6271829;22;20366;-72
2023/01/18 09:19:05;;;;;;;7.68;3.80;;;;;;;-140.72;100.00;53281.75;6272514;22;20058;-70
2023/01/18 09:21:30;;;;;;;8.55;3.70;;;;;;;-140.72;100.00;53324.38;6272198;22;20004;-70
2023/01/18 09:23:58;;;;;;;3.67;2.28;;;;;;;-140.72;100.00;53318.28;6271192;22;20290;-70
2023/01/18 09:26:23;;;;;;;5.35;2.30;;;;;;;-140.72;100.00;53308.13;6271999;22;20004;-70
2023/01/18 09:28:51;;;;;;;4.60;2.83;;;;;;;-140.72;100.00;53285.81;6272091;22;20333;-70
2023/01/18 09:31:18;;;;;;;5.30;2.75;;;;;;;-140.72;100.00;53287.84;6271369;22;20456;-71
2023/01/18 09:33:43;;;;;;;6.45;2.55;;;;;;;-140.72;100.00;53287.84;6271571;22;20399;-70
2023/01/18 09:36:11;;;;;;;6.82;2.60;;;;;;;-140.72;100.00;53295.94;6272690;22;20039;-70
2023/01/18 09:39:04;;;;;;;4.80;2.78;;;;;;;-140.72;100.00;53289.88;6271058;22;20003;-70
2023/01/18 09:41:45;;;;;;;3.83;2.40;;;;;;;-140.72;100.00;53289.88;6266260;22;20074;-70
2023/01/18 09:44:23;;;;;;;4.10;2.08;;;;;;;-140.72;100.00;53326.41;6272374;22;20006;-70
2023/01/18 09:47:16;;;;;;;4.55;2.75;;;;;;;-140.72;100.00;53291.88;6271815;22;20003;-69
2023/01/18 09:49:58;;;;;;;3.70;2.78;;;;;;;-140.72;100.00;53293.91;6255996;22;20011;-70
2023/01/18 09:52:46;;;;;;;3.40;2.55;;;;;;;-140.72;100.00;53255.34;6270319;22;20003;-71
2023/01/18 09:55:23;;;;;;;3.90;2.75;;;;;;;-140.72;100.00;53263.47;6272111;22;20008;-70
2023/01/18 09:58:01;;;;;;;5.00;2.60;;;;;;;-140.72;100.00;53289.88;6271137;22;19999;-70
2023/01/18 10:00:30;;;;;;;4.63;2.40;;;;;;;-140.72;100.00;53247.25;6271102;22;20049;-70
2023/01/18 10:03:23;;;;;;;4.32;2.15;;;;;;;-140.72;100.00;53271.59;6271669;22;20279;-70
2023/01/18 10:06:08;;;;;;;2.97;2.35;;;;;;;-140.72;100.00;53275.66;6270703;22;20003;-70
2023/01/18 10:08:55;;;;;;;5.13;2.63;;;;;;;-140.72;100.00;53306.09;6271350;22;20004;-70
2023/01/18 10:12:03;;;;;;;3.25;2.25;;;;;;;-140.72;100.00;53277.69;6271805;22;20480;-70
2023/01/18 10:14:34;;;;;;;6.43;2.58;;;;;;;-140.72;100.00;53235.06;6264031;22;20007;-70
2023/01/18 10:17:10;;;;;;;8.93;2.22;;;;;;;-140.72;100.00;53249.28;6268413;22;20397;-70
2023/01/18 10:19:37;;;;;;;5.57;2.67;;;;;;;-140.72;100.00;53300.00;6270388;22;20026;-70
2023/01/18 10:22:14;;;;;;;4.97;1.95;;;;;;;-140.72;100.00;53245.22;6269769;22;20373;-70
2023/01/18 10:25:04;;;;;;;4.20;2.17;;;;;;;-140.72;100.00;53267.53;6270365;22;20003;-70
2023/01/18 10:27:30;;;;;;;;;;;;;;;-140.72;100.00;53267.53;6270601;22;20394;-70
2023/01/18 10:30:13;;;;;;;4.10;1.85;;;;;;;-140.72;100.00;53269.56;6270398;22;19903;-69
2023/01/18 10:32:46;;;;;;;2.72;1.83;;;;;;;-140.72;100.00;53279.72;6270479;22;20004;-70
2023/01/18 10:35:22;;;;;;;3.33;2.15;;;;;;;-140.72;100.00;53233.03;6270529;22;20015;-70
2023/01/18 10:37:48;;;;;;;8.45;2.88;;;;;;;-140.72;100.00;53243.19;6271889;22;20094;-70
2023/01/18 10:40:14;;;;;;;4.07;2.30;;;;;;;-140.72;100.00;53259.41;6271414;22;20053;-70
2023/01/18 10:42:50;;;;;;;6.85;1.95;;;;;;;-140.72;100.00;53224.91;6271328;22;20337;-70
2023/01/18 10:45:20;;;;;;;3.40;2.33;;;;;;;-140.72;100.00;53271.59;6270042;22;20074;-70
2023/01/18 10:47:50;;;;;;;4.05;1.85;;;;;;;-140.72;100.00;53259.41;6270576;22;20010;-70
2023/01/18 10:50:24;;;;;;;2.97;1.70;;;;;;;-140.72;100.00;53218.81;6269287;22;20082;-70
2023/01/18 10:52:50;;;;;;;3.83;2.17;;;;;;;-140.72;100.00;53255.34;6268123;22;19999;-70
2023/01/18 10:55:20;;;;;;;3.72;1.80;;;;;;;-140.72;100.00;53251.31;6269682;22;20004;-70
2023/01/18 10:57:48;;;;;;;3.92;2.00;;;;;;;-140.72;100.00;53289.88;6270178;22;20012;-69
2023/01/18 11:00:20;;;;;;;2.13;1.60;;;;;;;-140.72;100.00;53267.53;6270990;22;20003;-70
2023/01/18 11:02:48;;;;;;;3.25;1.75;;;;;;;-140.72;100.00;53243.19;6269166;22;20310;-69
2023/01/18 11:05:32;;;;;;;3.35;2.28;;;;;;;-140.72;100.00;53228.97;6269838;22;20010;-71
2023/01/18 11:08:20;;;;;;;4.50;2.20;;;;;;;-140.72;100.00;53259.41;6270138;22;20004;-70
2023/01/18 11:11:04;;;;;;;3.17;1.95;;;;;;;-140.72;100.00;53253.31;6269621;22;20190;-70
2023/01/18 11:13:38;;;;;;;3.00;1.77;;;;;;;-140.72;100.00;53239.13;6271385;22;20475;-70
2023/01/18 11:16:11;;;;;;;3.63;1.70;;;;;;;-140.72;100.00;53273.63;6270961;22;20082;-70
2023/01/18 11:18:40;;;;;;;4.55;1.88;;;;;;;-140.72;100.00;53212.75;6269526;22;20054;-69
2023/01/18 11:21:10;;;;;;;6.40;1.93;;;;;;;-140.72;100.00;53194.47;6270453;22;20006;-70
2023/01/18 11:23:36;;;;;;;3.00;1.75;;;;;;;-140.72;100.00;53208.69;6270009;22;20502;-69
2023/01/18 11:26:18;;;;;;;4.28;2.03;;;;;;;-140.72;100.00;53226.94;6268998;22;20007;-70
2023/01/18 11:29:01;;;;;;;2.53;1.70;;;;;;;-140.72;100.00;53231.00;6271025;22;20283;-68
2023/01/18 11:31:47;;;;;;;2.78;1.95;;;;;;;-140.72;100.00;53182.28;6270480;22;20053;-72
2023/01/18 11:34:23;;;;;;;2.88;1.20;;;;;;;-140.72;100.00;53224.91;6270831;22;20067;-72
2023/01/18 11:36:49;;;;;;;4.32;1.58;;;;;;;-140.72;100.00;53243.19;6271366;22;20437;-70
2023/01/18 11:39:29;;;;;;;4.28;1.23;;;;;;;-140.72;100.00;53210.72;6271211;22;20003;-70
2023/01/18 11:42:29;;;;;;;2.05;1.48;;;;;;;-140.72;100.00;53194.47;6271404;22;20030;-71
2023/01/18 11:45:21;;;;;;;2.55;1.23;;;;;;;-140.72;100.00;53178.22;6243331;22;20010;-69
2023/01/18 11:48:11;;;;;;;4.53;1.45;;;;;;;-140.72;100.00;53208.69;6271319;22;20365;-70
2023/01/18 11:50:39;;;;;;;3.95;1.50;;;;;;;-140.72;100.00;53200.56;6271611;22;20104;-70
2023/01/18 11:53:42;;;;;;;2.90;1.67;;;;;;;-140.72;100.00;53202.59;6269799;22;20002;-70